Time;durP1;ratioP1;P1;durP2;ratioP2;P2;SDS_P1;SDS_P2;PMS_P1;PMS_P2;Temp;Humidity;BMP_temperature;BMP_pressure;BME280_temperature;BME280_humidity;BME280_pressure;Samples;Min_cycle;Max_cycle;Signal;HPM_P1;HPM_P2
2022/05/15 06:02:03;;;;;;;4.50;2.58;;;20.10;96.20;;;;;;5141029;23;20111;-78
2022/05/15 06:04:41;;;;;;;2.75;2.40;;;19.80;96.60;;;;;;4916515;29;20044;-79
2022/05/15 06:07:20;;;;;;;3.10;2.40;;;20.40;96.30;;;;;;4915659;29;20024;-80
2022/05/15 06:09:48;;;;;;;4.05;3.03;;;21.40;95.10;;;;;;4916764;29;20032;-79
2022/05/15 06:12:16;;;;;;;3.75;2.80;;;21.10;94.70;;;;;;4917104;29;20052;-79
2022/05/15 06:14:42;;;;;;;4.20;2.65;;;20.80;95.10;;;;;;4916770;29;20365;-79
2022/05/15 06:17:08;;;;;;;3.60;2.42;;;19.80;95.90;;;;;;4916741;29;20036;-80
2022/05/15 06:19:34;;;;;;;5.38;2.85;;;19.50;97.00;;;;;;4915171;29;20036;-79
2022/05/15 06:22:00;;;;;;;4.05;2.78;;;18.90;97.40;;;;;;4914769;29;20102;-80
2022/05/15 06:24:25;;;;;;;3.72;2.88;;;18.50;98.60;;;;;;4914779;29;20044;-78
2022/05/15 06:26:52;;;;;;;7.55;2.67;;;18.30;98.70;;;;;;4916470;29;20032;-79
2022/05/15 06:29:18;;;;;;;5.78;3.78;;;18.20;99.10;;;;;;4915447;29;20106;-79
2022/05/15 06:31:44;;;;;;;4.22;3.45;;;18.00;99.50;;;;;;4917086;29;20028;-80
2022/05/15 06:34:10;;;;;;;4.30;2.83;;;18.20;99.10;;;;;;4915092;29;20028;-78
2022/05/15 06:36:36;;;;;;;5.80;2.78;;;18.30;99.00;;;;;;4916256;29;20393;-80
2022/05/15 06:39:02;;;;;;;4.47;2.85;;;18.10;99.10;;;;;;4916746;29;20039;-80
2022/05/15 06:41:28;;;;;;;4.22;3.15;;;18.20;98.90;;;;;;4916031;29;20051;-79
2022/05/15 06:43:54;;;;;;;3.33;2.40;;;18.20;99.50;;;;;;4916501;29;20024;-80
2022/05/15 06:46:19;;;;;;;2.95;2.22;;;18.50;99.10;;;;;;4916050;29;20028;-80
2022/05/15 06:48:45;;;;;;;3.92;2.88;;;18.60;98.70;;;;;;4916181;29;20064;-79
2022/05/15 06:51:14;;;;;;;6.22;2.92;;;18.40;99.00;;;;;;4915934;29;20036;-78
2022/05/15 06:53:41;;;;;;;4.93;2.72;;;18.60;98.90;;;;;;4914471;29;20059;-79
2022/05/15 06:58:51;;;;;;;6.00;2.70;;;18.50;98.60;;;;;;4916832;29;20066;-80
2022/05/15 07:01:17;;;;;;;3.72;3.38;;;18.70;98.30;;;;;;4916884;29;20080;-79
2022/05/15 07:03:42;;;;;;;2.35;2.15;;;18.70;98.10;;;;;;4915556;29;20076;-80
2022/05/15 07:06:10;;;;;;;4.13;2.40;;;18.60;97.90;;;;;;4915894;29;20112;-79
2022/05/15 07:08:36;;;;;;;3.20;2.40;;;18.50;98.00;;;;;;4914806;29;20099;-79
2022/05/15 07:11:02;;;;;;;2.90;2.20;;;18.90;97.30;;;;;;4916514;29;20037;-78
2022/05/15 07:13:41;;;;;;;4.30;2.22;;;19.10;96.70;;;;;;5111130;27;20384;-78
2022/05/15 07:16:08;;;;;;;4.95;2.60;;;19.00;96.90;;;;;;5117535;28;20085;-81
2022/05/15 07:18:36;;;;;;;3.75;2.10;;;19.30;96.30;;;;;;5113621;28;20431;-80
2022/05/15 07:21:02;;;;;;;3.45;2.45;;;19.00;96.80;;;;;;5112023;28;20028;-79
2022/05/15 07:23:27;;;;;;;3.00;2.10;;;19.30;96.70;;;;;;5110832;28;20433;-77
2022/05/15 07:25:55;;;;;;;5.32;2.90;;;19.40;96.40;;;;;;5108877;28;20016;-76
2022/05/15 07:28:21;;;;;;;5.97;3.03;;;19.40;96.30;;;;;;5109690;28;20019;-77
2022/05/15 07:30:47;;;;;;;5.20;2.42;;;19.20;96.70;;;;;;5110255;28;20031;-77
2022/05/15 07:33:13;;;;;;;2.70;2.08;;;19.50;96.50;;;;;;5109642;28;20039;-77
2022/05/15 07:35:38;;;;;;;2.78;1.83;;;19.90;95.90;;;;;;5109725;28;20473;-76
2022/05/15 07:38:04;;;;;;;2.50;1.95;;;20.10;95.60;;;;;;5108975;28;20035;-77
2022/05/15 07:40:31;;;;;;;2.08;1.88;;;20.10;95.60;;;;;;5111196;28;20031;-77
2022/05/15 07:42:57;;;;;;;4.10;2.13;;;19.90;95.50;;;;;;5112454;28;20095;-76
2022/05/15 07:45:22;;;;;;;3.03;1.92;;;19.90;95.70;;;;;;5108281;28;20111;-79
2022/05/15 07:47:48;;;;;;;3.03;2.50;;;20.00;95.70;;;;;;5112571;28;20080;-77
2022/05/15 07:50:14;;;;;;;4.10;2.17;;;19.80;95.90;;;;;;5110260;28;20059;-76
2022/05/15 07:52:40;;;;;;;2.85;2.08;;;20.20;95.60;;;;;;5109860;28;20084;-77
2022/05/15 07:55:06;;;;;;;2.60;1.80;;;20.60;95.10;;;;;;5109836;28;20016;-77
2022/05/15 07:57:34;;;;;;;3.90;2.22;;;20.50;94.80;;;;;;5110004;28;20019;-77
2022/05/15 08:00:05;;;;;;;3.55;1.77;;;20.90;94.70;;;;;;5109563;28;20047;-76
2022/05/15 08:02:32;;;;;;;6.13;1.90;;;21.30;94.10;;;;;;5108435;28;20027;-77
2022/05/15 08:10:25;;;;;;;5.63;2.13;;;20.90;94.50;;;;;;5112074;28;20078;-77
2022/05/15 08:12:51;;;;;;;3.63;1.60;;;21.30;93.80;;;;;;5110693;28;20491;-77
2022/05/15 08:15:17;;;;;;;6.55;2.97;;;21.60;93.80;;;;;;5110488;28;20441;-77
2022/05/15 08:17:42;;;;;;;5.63;1.70;;;21.40;94.00;;;;;;5108745;28;20453;-77
2022/05/15 08:25:38;;;;;;;4.53;1.60;;;21.90;92.70;;;;;;5096292;28;20132;-77
2022/05/15 08:28:04;;;;;;;2.42;1.38;;;22.30;92.50;;;;;;5095704;28;20028;-78
2022/05/15 08:30:29;;;;;;;3.45;1.33;;;22.40;92.20;;;;;;5094481;28;20033;-78
2022/05/15 08:32:55;;;;;;;3.20;1.60;;;22.40;92.40;;;;;;5094408;28;20052;-77
2022/05/15 08:35:20;;;;;;;3.10;1.73;;;22.50;92.00;;;;;;5094145;28;20107;-77
2022/05/15 08:37:46;;;;;;;3.15;1.42;;;22.80;91.60;;;;;;5094411;28;20027;-79
2022/05/15 08:40:13;;;;;;;2.92;1.77;;;22.90;91.20;;;;;;5095250;28;20047;-77
2022/05/15 08:42:56;;;;;;;2.60;1.35;;;23.00;90.70;;;;;;5094516;28;20031;-77
2022/05/15 08:45:24;;;;;;;4.35;1.55;;;22.90;90.20;;;;;;5094691;28;20031;-76
2022/05/15 08:48:01;;;;;;;4.20;2.50;;;22.90;90.60;;;;;;5095589;28;20082;-77
2022/05/15 08:50:32;;;;;;;2.22;1.15;;;22.80;90.90;;;;;;5095847;28;20028;-77
2022/05/15 08:53:03;;;;;;;2.78;1.35;;;23.10;90.30;;;;;;5095230;28;20024;-78
2022/05/15 08:55:39;;;;;;;5.57;1.45;;;23.30;90.30;;;;;;5094784;28;20024;-77
2022/05/15 08:58:08;;;;;;;3.70;1.40;;;23.40;90.30;;;;;;5095082;28;20073;-78
2022/05/15 09:00:39;;;;;;;2.75;1.50;;;23.20;90.50;;;;;;5095343;28;20103;-77
2022/05/15 09:03:24;;;;;;;3.72;1.10;;;23.30;90.60;;;;;;5093877;28;20028;-77
2022/05/15 09:06:01;;;;;;;1.77;1.25;;;23.50;90.10;;;;;;5094825;28;20071;-77
2022/05/15 09:08:42;;;;;;;3.78;1.58;;;23.60;90.10;;;;;;5094748;28;20032;-77
2022/05/15 09:11:09;;;;;;;3.88;1.30;;;23.70;89.80;;;;;;5093597;28;20058;-76
2022/05/15 09:13:42;;;;;;;2.65;1.70;;;23.80;89.70;;;;;;5093560;28;20052;-77
2022/05/15 09:16:31;;;;;;;3.53;1.27;;;23.90;89.00;;;;;;5094054;28;20510;-77
2022/05/15 09:19:06;;;;;;;4.47;1.80;;;24.00;88.20;;;;;;5094677;28;20024;-78
2022/05/15 09:21:32;;;;;;;3.33;1.00;;;23.90;88.40;;;;;;5093258;28;20020;-76
2022/05/15 09:24:08;;;;;;;3.13;1.10;;;23.90;88.90;;;;;;5093550;28;20373;-78
2022/05/15 09:26:46;;;;;;;3.95;1.20;;;24.20;87.90;;;;;;5093372;28;20020;-78
2022/05/15 09:29:26;;;;;;;2.67;1.00;;;24.30;88.40;;;;;;5093409;28;20080;-78
2022/05/15 09:31:52;;;;;;;1.87;1.10;;;24.40;88.10;;;;;;5094698;28;20020;-77
2022/05/15 09:34:29;;;;;;;1.63;1.17;;;24.70;86.40;;;;;;5093135;28;20266;-78
2022/05/15 09:39:47;;;;;;;3.20;1.33;;;25.00;83.80;;;;;;5095359;28;20112;-77
2022/05/15 09:45:14;;;;;;;4.28;1.88;;;25.00;82.80;;;;;;5094893;28;20093;-78
2022/05/15 09:47:43;;;;;;;4.45;1.55;;;25.20;82.20;;;;;;5092966;28;20024;-76
2022/05/15 09:50:30;;;;;;;1.92;1.05;;;25.20;81.60;;;;;;5092522;28;20028;-77
2022/05/15 09:52:56;;;;;;;3.67;1.20;;;25.00;81.60;;;;;;5092894;28;20345;-78
2022/05/15 09:55:25;;;;;;;2.33;1.45;;;25.00;81.10;;;;;;5095666;28;20387;-77
2022/05/15 09:57:58;;;;;;;1.75;1.00;;;24.80;82.30;;;;;;5093707;28;20025;-77
2022/05/15 10:00:27;;;;;;;6.00;1.20;;;24.80;80.60;;;;;;5093144;28;20020;-76
2022/05/15 10:02:56;;;;;;;4.70;1.00;;;25.10;80.90;;;;;;5093852;28;20070;-78
2022/05/15 10:05:23;;;;;;;3.38;1.48;;;25.10;80.20;;;;;;5093246;28;20036;-80
2022/05/15 10:08:05;;;;;;;2.95;1.17;;;25.20;79.70;;;;;;5094889;28;20020;-79
2022/05/15 10:10:38;;;;;;;2.97;1.27;;;25.20;80.00;;;;;;5092597;28;20020;-77
2022/05/15 10:13:30;;;;;;;2.00;1.25;;;25.20;79.80;;;;;;5093313;28;20105;-77
2022/05/15 10:16:02;;;;;;;1.60;1.15;;;24.90;81.60;;;;;;5091600;28;20552;-79
2022/05/15 10:18:32;;;;;;;2.40;1.20;;;25.00;83.10;;;;;;5094351;28;20020;-77
2022/05/15 10:21:01;;;;;;;4.20;1.30;;;25.30;82.80;;;;;;5094177;28;20024;-77
2022/05/15 10:23:31;;;;;;;3.00;1.02;;;25.40;80.90;;;;;;5093775;28;20039;-76
2022/05/15 10:26:10;;;;;;;3.03;1.30;;;25.60;79.60;;;;;;5093557;28;20021;-78
2022/05/15 10:28:42;;;;;;;1.95;1.15;;;25.90;78.40;;;;;;5093894;28;20433;-77
2022/05/15 10:31:22;;;;;;;2.10;1.25;;;25.80;78.40;;;;;;5093732;28;20507;-78
2022/05/15 10:33:54;;;;;;;4.03;1.20;;;25.40;78.40;;;;;;5093316;28;20035;-76
2022/05/15 10:36:27;;;;;;;3.80;1.35;;;25.00;79.10;;;;;;5092116;28;20551;-78
2022/05/15 10:39:12;;;;;;;3.10;1.30;;;25.20;79.90;;;;;;5092086;28;20031;-79
2022/05/15 10:42:14;;;;;;;2.03;0.98;;;25.80;79.20;;;;;;5093070;28;20023;-77
2022/05/15 10:44:48;;;;;;;5.70;1.10;;;26.00;78.90;;;;;;5092271;28;20434;-77
2022/05/15 10:47:20;;;;;;;1.38;0.90;;;26.10;78.80;;;;;;5092945;28;20487;-78
2022/05/15 10:49:48;;;;;;;2.53;1.60;;;26.10;77.90;;;;;;5091499;28;20107;-78
2022/05/15 10:52:54;;;;;;;1.95;1.25;;;26.10;78.20;;;;;;5091392;28;20403;-76
2022/05/15 10:58:41;;;;;;;3.25;1.10;;;26.00;77.10;;;;;;5093690;28;20031;-78
2022/05/15 11:01:21;;;;;;;3.58;1.45;;;26.00;78.90;;;;;;5096499;28;20095;-78
2022/05/15 11:04:06;;;;;;;1.97;1.03;;;26.40;76.90;;;;;;5093537;28;20020;-77
2022/05/15 11:07:03;;;;;;;2.00;1.13;;;26.40;77.40;;;;;;5094269;28;20362;-78
2022/05/15 11:09:54;;;;;;;3.88;1.15;;;26.50;77.10;;;;;;5093947;28;20016;-77
2022/05/15 11:12:28;;;;;;;2.75;1.45;;;26.50;75.90;;;;;;5093174;28;20411;-78
2022/05/15 11:15:38;;;;;;;2.25;1.00;;;26.40;75.30;;;;;;5092548;28;20440;-77
2022/05/15 11:18:16;;;;;;;2.60;1.73;;;26.50;75.40;;;;;;5060965;28;20036;-76
2022/05/15 11:20:46;;;;;;;6.25;1.55;;;26.40;74.20;;;;;;5090958;28;20024;-77
2022/05/15 11:23:20;;;;;;;3.15;2.03;;;26.50;75.00;;;;;;5091532;28;20073;-77
2022/05/15 11:25:52;;;;;;;1.50;1.20;;;26.50;74.90;;;;;;5092078;28;20085;-77
2022/05/15 11:28:27;;;;;;;3.08;1.10;;;26.60;75.00;;;;;;5095079;28;20021;-77
2022/05/15 11:31:21;;;;;;;2.75;1.90;;;26.60;75.10;;;;;;5091536;28;20024;-77
2022/05/15 11:33:51;;;;;;;4.25;1.52;;;26.40;74.20;;;;;;5082640;28;20047;-78
2022/05/15 11:36:27;;;;;;;1.35;0.90;;;26.50;74.40;;;;;;5092786;28;20461;-77
2022/05/15 11:39:05;;;;;;;2.70;1.50;;;26.70;73.60;;;;;;5093780;28;20387;-77
2022/05/15 11:41:34;;;;;;;2.70;1.10;;;26.90;74.30;;;;;;5093324;28;20112;-77
2022/05/15 11:44:03;;;;;;;4.07;1.05;;;26.70;73.90;;;;;;5091232;28;20081;-77
2022/05/15 11:46:47;;;;;;;5.43;1.15;;;26.90;72.40;;;;;;5090989;28;20028;-79
2022/05/15 11:49:29;;;;;;;2.95;1.17;;;27.10;72.30;;;;;;5092828;28;20120;-78
2022/05/15 11:52:03;;;;;;;1.92;1.05;;;27.00;72.20;;;;;;5092398;28;20119;-77
2022/05/15 11:54:45;;;;;;;3.55;1.17;;;26.80;72.30;;;;;;5091929;28;20016;-77
2022/05/15 11:57:49;;;;;;;4.22;1.15;;;26.60;72.50;;;;;;5092760;28;20027;-77
2022/05/15 12:00:30;;;;;;;2.53;1.23;;;26.90;72.70;;;;;;5094705;28;20036;-77
2022/05/15 12:02:58;;;;;;;2.90;1.25;;;27.00;72.00;;;;;;5096425;28;20119;-76
2022/05/15 12:05:59;;;;;;;1.80;1.35;;;27.00;71.90;;;;;;5096466;28;20024;-78
2022/05/15 12:08:29;;;;;;;2.47;1.80;;;27.10;72.40;;;;;;5096566;28;20119;-77
2022/05/15 12:10:57;;;;;;;2.10;1.20;;;27.10;72.00;;;;;;5096478;28;20050;-77
2022/05/15 12:13:35;;;;;;;3.03;1.05;;;27.10;70.80;;;;;;5096129;28;20131;-77
2022/05/15 12:16:23;;;;;;;3.92;1.38;;;27.20;71.30;;;;;;5095418;28;20418;-76
2022/05/15 12:19:15;;;;;;;1.88;1.27;;;27.50;69.50;;;;;;5096968;28;20133;-77
2022/05/15 12:21:46;;;;;;;2.65;1.00;;;27.40;69.70;;;;;;5077364;28;20032;-77
2022/05/15 12:24:27;;;;;;;2.53;1.40;;;27.40;68.40;;;;;;5096165;28;20089;-78
2022/05/15 12:26:58;;;;;;;;;;;27.60;66.90;;;;;;5095730;28;20024;-76
2022/05/15 12:29:34;;;;;;;1.13;0.90;;;27.40;67.40;;;;;;5094509;28;19915;-77
2022/05/15 12:31:59;;;;;;;2.45;1.30;;;27.30;68.20;;;;;;5093898;28;20034;-78
2022/05/15 12:34:34;;;;;;;1.70;1.05;;;27.20;67.00;;;;;;5095370;28;20099;-76
2022/05/15 12:37:08;;;;;;;2.45;1.30;;;27.00;66.90;;;;;;5094124;28;20020;-78
2022/05/15 12:39:38;;;;;;;2.25;0.88;;;27.20;66.50;;;;;;5095900;28;20027;-78
2022/05/15 12:42:14;;;;;;;2.72;1.10;;;27.40;65.60;;;;;;5094127;28;20406;-77
2022/05/15 12:44:39;;;;;;;3.72;2.05;;;27.50;65.80;;;;;;5095569;28;20031;-77
2022/05/15 12:47:09;;;;;;;2.72;1.05;;;27.60;66.10;;;;;;5094759;28;20143;-78
2022/05/15 12:49:39;;;;;;;3.50;1.55;;;27.40;65.90;;;;;;5094082;28;20118;-77
2022/05/15 12:52:29;;;;;;;1.13;1.02;;;27.30;65.90;;;;;;5094778;28;20032;-77
2022/05/15 12:54:58;;;;;;;2.70;1.10;;;27.50;64.90;;;;;;5095615;28;20032;-77
2022/05/15 12:57:24;;;;;;;2.15;1.30;;;27.60;64.80;;;;;;5094954;28;20119;-77
2022/05/15 12:59:50;;;;;;;2.60;1.05;;;27.50;65.10;;;;;;5096096;28;20059;-78
2022/05/15 13:02:35;;;;;;;2.67;1.23;;;27.40;65.20;;;;;;5094148;28;20027;-78
2022/05/15 13:05:05;;;;;;;2.20;1.00;;;27.50;64.90;;;;;;5095405;28;20483;-79
2022/05/15 13:07:37;;;;;;;5.47;2.05;;;27.50;64.40;;;;;;5093711;28;20039;-78
2022/05/15 13:10:07;;;;;;;2.85;1.60;;;27.60;65.00;;;;;;5094122;28;20054;-79
2022/05/15 13:12:34;;;;;;;1.80;1.20;;;27.70;64.30;;;;;;5093818;28;20120;-78
2022/05/15 13:15:02;;;;;;;2.63;1.38;;;27.70;64.00;;;;;;5093382;28;20904;-77
2022/05/15 13:17:34;;;;;;;3.22;1.23;;;27.70;64.00;;;;;;5094004;28;20122;-78
2022/05/15 13:20:10;;;;;;;2.70;1.00;;;27.70;63.20;;;;;;5093722;28;20564;-78
2022/05/15 13:22:36;;;;;;;2.67;1.35;;;27.80;62.40;;;;;;5094877;28;20058;-78
2022/05/15 13:25:19;;;;;;;2.78;1.23;;;28.10;62.60;;;;;;5094658;28;20081;-80
2022/05/15 13:27:46;;;;;;;4.47;1.20;;;28.00;62.80;;;;;;5095335;28;20035;-80
2022/05/15 13:30:20;;;;;;;1.50;0.85;;;28.20;62.60;;;;;;5093551;28;20032;-80
2022/05/15 13:32:47;;;;;;;3.15;1.00;;;28.20;62.40;;;;;;5094585;28;20027;-80
2022/05/15 13:35:15;;;;;;;1.73;1.02;;;28.40;61.90;;;;;;5095276;28;20060;-81
2022/05/15 13:37:46;;;;;;;1.73;1.10;;;28.50;60.90;;;;;;5097611;28;20089;-80
2022/05/15 13:45:59;;;;;;;5.82;1.10;;;28.20;59.80;;;;;;5096114;28;20039;-81
2022/05/15 13:48:26;;;;;;;1.25;1.00;;;28.20;60.00;;;;;;5094637;28;20032;-78
2022/05/15 13:50:59;;;;;;;1.00;0.77;;;28.10;59.30;;;;;;5095317;28;20028;-79
2022/05/15 13:53:34;;;;;;;1.52;1.10;;;27.90;58.30;;;;;;5093921;28;20162;-82
2022/05/15 13:56:04;;;;;;;1.40;0.82;;;27.80;57.50;;;;;;5096104;28;20023;-81
2022/05/15 13:58:49;;;;;;;3.65;0.88;;;27.70;57.50;;;;;;5094493;28;20030;-80
2022/05/15 14:01:21;;;;;;;5.28;1.10;;;28.10;58.20;;;;;;5094524;28;20028;-80
2022/05/15 14:03:49;;;;;;;3.03;1.00;;;28.30;60.00;;;;;;5094536;28;20028;-79
2022/05/15 14:06:29;;;;;;;3.38;1.27;;;28.50;60.20;;;;;;5095255;28;20030;-80
2022/05/15 14:09:06;;;;;;;2.15;1.00;;;28.30;60.90;;;;;;5100755;28;20552;-79
2022/05/15 14:11:50;;;;;;;6.28;0.98;;;28.30;61.00;;;;;;5097212;28;20032;-80
2022/05/15 14:14:16;;;;;;;2.05;1.30;;;28.20;61.20;;;;;;5094371;28;20023;-80
2022/05/15 14:16:42;;;;;;;2.50;1.58;;;28.20;61.70;;;;;;5094699;28;20020;-80
2022/05/15 14:19:17;;;;;;;2.50;1.42;;;28.10;61.30;;;;;;5095817;28;20024;-79
2022/05/15 14:21:59;;;;;;;4.80;1.20;;;27.80;60.40;;;;;;5095176;28;20043;-80
2022/05/15 14:24:25;;;;;;;2.17;0.80;;;28.10;59.30;;;;;;5094762;28;20054;-80
2022/05/15 14:26:51;;;;;;;1.90;0.93;;;28.10;59.60;;;;;;5095320;28;20383;-79
2022/05/15 14:29:16;;;;;;;2.17;1.00;;;28.20;59.40;;;;;;5093889;28;20024;-80
2022/05/15 14:31:43;;;;;;;2.38;1.67;;;28.30;59.10;;;;;;5093217;28;20119;-79
2022/05/15 14:34:09;;;;;;;1.70;1.00;;;28.30;59.00;;;;;;5095471;28;20020;-80
2022/05/15 14:36:34;;;;;;;1.92;1.10;;;28.00;59.50;;;;;;5094929;28;20028;-80
2022/05/15 14:39:00;;;;;;;3.17;1.10;;;28.20;59.50;;;;;;5095063;28;20395;-80
2022/05/15 14:41:26;;;;;;;1.17;0.88;;;28.30;59.90;;;;;;5094624;28;20527;-80
2022/05/15 14:43:52;;;;;;;3.05;1.10;;;28.10;60.80;;;;;;5094041;28;20028;-79
2022/05/15 14:46:23;;;;;;;2.30;1.20;;;28.20;61.10;;;;;;5094458;28;20020;-80
2022/05/15 14:48:50;;;;;;;1.35;0.95;;;28.20;60.60;;;;;;5092880;28;20066;-80
2022/05/15 14:51:23;;;;;;;2.10;1.15;;;28.40;60.40;;;;;;5093260;28;20020;-78
2022/05/15 14:53:50;;;;;;;1.50;1.02;;;28.30;60.70;;;;;;5094173;28;20039;-79
2022/05/15 14:56:16;;;;;;;3.95;2.03;;;28.20;60.50;;;;;;5092357;28;20020;-79
2022/05/15 14:59:00;;;;;;;2.15;1.05;;;28.10;60.00;;;;;;5094798;28;20069;-80
2022/05/15 15:01:27;;;;;;;3.42;1.30;;;28.10;60.00;;;;;;5092878;28;20031;-81
2022/05/15 15:03:53;;;;;;;1.67;1.13;;;28.20;60.10;;;;;;5093298;28;20024;-81
2022/05/15 15:06:19;;;;;;;0.98;0.85;;;28.30;59.40;;;;;;5093967;28;20042;-80
2022/05/15 15:08:45;;;;;;;2.33;1.40;;;28.30;58.80;;;;;;5093398;28;20032;-80
2022/05/15 15:11:15;;;;;;;1.17;0.80;;;28.20;58.70;;;;;;5094489;28;20024;-80
2022/05/15 15:13:44;;;;;;;2.20;1.33;;;28.00;59.00;;;;;;5093020;28;20222;-79
2022/05/15 15:16:10;;;;;;;1.63;1.00;;;28.00;59.50;;;;;;5094115;28;20020;-81
2022/05/15 15:18:36;;;;;;;2.53;1.30;;;27.80;59.90;;;;;;5092836;28;20031;-81
2022/05/15 15:21:02;;;;;;;3.60;1.13;;;27.90;59.60;;;;;;5093565;28;20024;-81
2022/05/15 15:23:27;;;;;;;1.85;0.90;;;28.00;59.30;;;;;;5093694;28;20398;-78
2022/05/15 15:25:53;;;;;;;2.15;0.90;;;28.10;58.40;;;;;;5092990;28;20250;-80
2022/05/15 15:28:19;;;;;;;1.23;0.85;;;28.10;58.60;;;;;;5093998;28;20036;-81
2022/05/15 15:30:44;;;;;;;1.27;0.85;;;28.10;59.10;;;;;;5092553;28;20468;-80
2022/05/15 15:33:11;;;;;;;4.50;1.00;;;27.90;59.90;;;;;;5094254;28;20107;-82
2022/05/15 15:35:36;;;;;;;4.65;1.25;;;28.00;59.50;;;;;;5097891;28;20028;-80
2022/05/15 15:38:15;;;;;;;2.20;1.10;;;28.10;58.80;;;;;;5096536;28;20024;-81
2022/05/15 15:40:51;;;;;;;2.75;1.00;;;27.80;59.40;;;;;;5096207;28;20028;-79
2022/05/15 15:43:19;;;;;;;1.63;0.90;;;27.90;59.40;;;;;;5097626;28;20024;-81
2022/05/15 15:45:45;;;;;;;2.47;1.00;;;28.10;58.60;;;;;;5096683;28;20032;-82
2022/05/15 15:48:11;;;;;;;2.00;1.02;;;28.10;58.40;;;;;;5097479;28;20551;-81
2022/05/15 15:50:38;;;;;;;2.28;1.02;;;28.00;58.90;;;;;;5097685;28;20024;-80
2022/05/15 15:53:05;;;;;;;2.63;1.02;;;28.10;59.00;;;;;;5097942;28;20107;-80
2022/05/15 15:55:32;;;;;;;2.42;1.10;;;27.90;58.30;;;;;;5095397;28;20016;-81
2022/05/15 15:57:59;;;;;;;1.55;0.90;;;27.90;58.00;;;;;;5096278;28;20020;-80
2022/05/15 16:00:25;;;;;;;3.15;0.70;;;27.80;58.00;;;;;;5096428;28;20111;-79
2022/05/15 16:02:51;;;;;;;1.95;0.70;;;27.70;58.20;;;;;;5101632;28;20035;-80
2022/05/15 16:05:19;;;;;;;1.15;0.88;;;27.70;58.30;;;;;;5105189;28;20028;-82
2022/05/15 16:07:45;;;;;;;1.83;0.90;;;27.70;58.30;;;;;;5098976;28;20024;-79
2022/05/15 16:10:11;;;;;;;1.48;0.80;;;27.70;58.50;;;;;;5097469;28;20027;-81
2022/05/15 16:12:37;;;;;;;1.85;1.20;;;27.50;59.10;;;;;;5095311;28;20544;-79
2022/05/15 16:15:04;;;;;;;3.25;1.40;;;27.50;59.00;;;;;;5099317;28;20028;-82
2022/05/15 16:17:30;;;;;;;1.30;0.90;;;27.50;59.10;;;;;;5098850;28;20031;-80
2022/05/15 16:19:57;;;;;;;1.83;1.00;;;27.60;59.40;;;;;;5097641;28;20024;-80
2022/05/15 16:22:25;;;;;;;1.60;0.85;;;27.60;58.70;;;;;;5096371;28;20024;-78
2022/05/15 16:24:57;;;;;;;1.98;1.10;;;27.60;58.30;;;;;;5096839;28;20472;-81
2022/05/15 16:27:24;;;;;;;4.18;1.00;;;27.50;58.80;;;;;;5095345;28;20491;-81
2022/05/15 16:29:53;;;;;;;2.72;1.10;;;27.60;59.00;;;;;;5095286;28;20020;-80
2022/05/15 16:32:28;;;;;;;1.90;1.30;;;27.40;58.50;;;;;;5097395;28;20162;-80
2022/05/15 16:34:54;;;;;;;1.38;1.00;;;27.50;58.70;;;;;;5095450;28;20495;-80
2022/05/15 16:37:19;;;;;;;1.85;1.00;;;27.40;58.50;;;;;;5095596;28;20062;-80
2022/05/15 16:39:45;;;;;;;2.10;1.00;;;27.30;58.20;;;;;;5094968;28;20337;-81
2022/05/15 16:42:18;;;;;;;2.80;1.00;;;27.20;58.60;;;;;;5094762;28;20030;-80
2022/05/15 16:44:44;;;;;;;4.80;1.00;;;27.10;58.40;;;;;;5095399;28;20016;-80
2022/05/15 16:47:09;;;;;;;1.90;0.90;;;27.00;58.70;;;;;;5095970;28;20028;-81
2022/05/15 16:49:36;;;;;;;1.33;1.05;;;27.00;59.10;;;;;;5094661;28;20439;-79
2022/05/15 16:52:02;;;;;;;3.88;1.40;;;27.00;58.90;;;;;;5094952;28;20107;-80
2022/05/15 16:54:28;;;;;;;4.18;1.10;;;27.00;59.10;;;;;;5095400;28;20040;-80
2022/05/15 16:56:53;;;;;;;4.38;1.00;;;26.90;59.10;;;;;;5096041;28;20460;-80
2022/05/15 16:59:19;;;;;;;1.45;0.90;;;27.00;59.20;;;;;;5094426;28;20016;-79
2022/05/15 17:01:44;;;;;;;2.22;1.27;;;27.10;59.00;;;;;;5096357;28;20054;-80
2022/05/15 17:04:10;;;;;;;1.23;0.82;;;27.40;58.40;;;;;;5095688;28;20020;-80
2022/05/15 17:06:36;;;;;;;2.17;1.08;;;27.50;58.10;;;;;;5094017;28;20016;-80
2022/05/15 17:09:02;;;;;;;2.58;0.82;;;27.50;57.70;;;;;;5094453;28;20468;-79
2022/05/15 17:11:28;;;;;;;3.72;1.35;;;27.60;57.70;;;;;;5093736;28;20441;-80
2022/05/15 17:13:53;;;;;;;2.75;1.08;;;27.50;57.60;;;;;;5094393;28;20086;-79
2022/05/15 17:16:19;;;;;;;4.05;0.95;;;27.40;57.50;;;;;;5094260;28;20051;-80
2022/05/15 17:18:45;;;;;;;2.60;0.80;;;27.40;58.00;;;;;;5094598;28;20020;-79
2022/05/15 17:21:11;;;;;;;2.90;1.00;;;27.50;58.00;;;;;;5095312;28;20155;-79
2022/05/15 17:23:37;;;;;;;1.13;0.90;;;27.70;57.30;;;;;;5095363;28;20028;-81
2022/05/15 17:26:03;;;;;;;4.00;1.35;;;27.60;57.10;;;;;;5093886;28;20020;-81
2022/05/15 17:36:23;;;;;;;2.70;1.10;;;28.40;57.00;;;;;;5095691;28;20495;-80
2022/05/15 17:38:49;;;;;;;3.05;1.00;;;28.70;57.10;;;;;;5094255;28;20020;-79
2022/05/15 17:41:14;;;;;;;3.13;1.27;;;29.00;56.70;;;;;;5095039;28;20096;-80
2022/05/15 17:43:40;;;;;;;2.25;1.10;;;28.90;56.80;;;;;;5094483;28;20100;-80
2022/05/15 17:46:07;;;;;;;2.35;1.02;;;29.50;56.70;;;;;;5095747;28;20024;-80
2022/05/15 17:48:35;;;;;;;2.20;0.85;;;29.90;56.20;;;;;;5093321;28;20035;-80
2022/05/15 17:51:01;;;;;;;3.35;1.10;;;29.90;55.90;;;;;;5095829;28;20115;-79
2022/05/15 17:53:27;;;;;;;4.35;1.10;;;29.80;56.00;;;;;;5094523;28;20388;-79
2022/05/15 17:55:53;;;;;;;2.35;1.02;;;29.60;56.20;;;;;;5094652;28;20020;-79
2022/05/15 17:58:19;;;;;;;2.80;0.90;;;29.40;56.20;;;;;;5093546;28;20020;-79
2022/05/15 18:00:45;;;;;;;2.40;0.88;;;29.10;56.60;;;;;;5094939;28;20483;-79
2022/05/15 18:03:10;;;;;;;1.60;1.10;;;28.90;56.90;;;;;;5093295;28;20027;-80
2022/05/15 18:05:37;;;;;;;1.63;0.60;;;28.60;56.90;;;;;;5094757;28;20036;-81
2022/05/15 18:08:03;;;;;;;3.28;0.90;;;28.40;56.80;;;;;;5094992;28;20451;-79
2022/05/15 18:10:29;;;;;;;1.77;1.00;;;28.10;57.00;;;;;;5094353;28;20038;-79
2022/05/15 18:12:56;;;;;;;1.77;1.00;;;28.00;56.80;;;;;;5093479;28;20482;-79
2022/05/15 18:15:22;;;;;;;1.77;1.10;;;27.70;57.40;;;;;;5094121;28;20483;-80
2022/05/15 18:17:49;;;;;;;1.95;0.90;;;27.00;57.60;;;;;;5095595;28;20020;-79
2022/05/15 18:20:14;;;;;;;2.97;0.90;;;26.80;57.70;;;;;;5094446;28;20077;-80
2022/05/15 18:22:40;;;;;;;3.17;1.10;;;26.60;57.70;;;;;;5096776;28;20103;-79
2022/05/15 18:25:06;;;;;;;1.45;0.73;;;26.20;58.10;;;;;;5093206;28;20419;-80
2022/05/15 18:27:33;;;;;;;1.25;1.00;;;25.90;58.40;;;;;;5094240;28;20024;-79
2022/05/15 18:29:59;;;;;;;1.38;0.95;;;25.60;58.70;;;;;;5094090;28;20020;-79
2022/05/15 18:32:24;;;;;;;4.25;1.02;;;25.30;59.50;;;;;;5094144;28;20436;-79
2022/05/15 18:34:51;;;;;;;2.47;1.10;;;25.10;59.80;;;;;;5093600;28;20088;-79
2022/05/15 18:37:17;;;;;;;3.63;1.00;;;24.90;60.30;;;;;;5095052;28;20030;-80
2022/05/15 18:39:42;;;;;;;3.20;1.63;;;24.70;60.80;;;;;;5094462;28;20390;-80
2022/05/15 18:42:09;;;;;;;1.88;1.25;;;24.50;61.20;;;;;;5093699;28;20024;-78
2022/05/15 18:44:36;;;;;;;4.50;1.63;;;24.30;61.70;;;;;;5093945;28;20027;-80
2022/05/15 18:47:04;;;;;;;1.52;1.20;;;24.20;62.20;;;;;;5092676;28;20024;-79
2022/05/15 18:49:29;;;;;;;3.47;1.15;;;24.00;62.70;;;;;;5096669;28;20472;-78
2022/05/15 18:54:55;;;;;;;4.15;1.70;;;23.70;63.40;;;;;;5094107;28;20081;-80
2022/05/15 18:57:22;;;;;;;1.55;1.00;;;23.50;63.80;;;;;;5094044;28;20532;-80
2022/05/15 18:59:48;;;;;;;4.40;1.20;;;23.50;64.10;;;;;;5094174;28;20140;-80
2022/05/15 19:02:16;;;;;;;3.08;1.23;;;23.60;64.30;;;;;;5095780;28;20118;-79
2022/05/15 19:04:42;;;;;;;2.15;1.05;;;23.60;64.40;;;;;;5093406;28;20027;-80
2022/05/15 19:07:08;;;;;;;2.67;1.50;;;23.70;64.20;;;;;;5094342;28;20020;-80
2022/05/15 19:09:33;;;;;;;4.78;1.40;;;23.50;64.60;;;;;;5094731;28;20020;-79
2022/05/15 19:11:59;;;;;;;1.40;1.15;;;23.20;65.30;;;;;;5097046;28;20055;-81
2022/05/15 19:14:27;;;;;;;3.55;1.27;;;23.00;65.80;;;;;;5098267;28;20040;-79
2022/05/15 19:16:52;;;;;;;2.20;1.60;;;22.80;66.50;;;;;;5093657;28;20016;-80
2022/05/15 19:19:18;;;;;;;4.95;1.67;;;22.60;67.10;;;;;;5094781;28;20502;-79
2022/05/15 19:21:43;;;;;;;4.32;1.60;;;22.50;67.20;;;;;;5094764;28;20021;-80
2022/05/15 19:24:09;;;;;;;2.15;1.40;;;22.50;67.60;;;;;;5093129;28;20038;-79
2022/05/15 19:26:34;;;;;;;2.25;1.48;;;22.30;67.90;;;;;;5092967;28;20020;-80
2022/05/15 19:29:02;;;;;;;2.15;1.50;;;22.20;68.40;;;;;;5092576;28;20062;-81
2022/05/15 19:31:28;;;;;;;7.68;1.55;;;22.10;68.70;;;;;;5093487;28;20020;-80
2022/05/15 19:33:54;;;;;;;2.50;1.35;;;22.10;68.80;;;;;;5092586;28;20085;-80
2022/05/15 19:36:19;;;;;;;2.55;1.50;;;22.20;68.20;;;;;;5092951;28;20038;-79
2022/05/15 19:38:45;;;;;;;2.92;1.77;;;22.20;67.90;;;;;;5094360;28;20024;-79
2022/05/15 19:41:10;;;;;;;2.30;1.40;;;22.20;68.30;;;;;;5091962;28;20043;-80
2022/05/15 19:43:36;;;;;;;1.83;1.60;;;22.00;68.80;;;;;;5093504;28;20028;-82